createdAt,value
2019-02-24T00:01:25.671Z,23.03
2019-02-24T00:03:54.684Z,22.03
2019-02-24T00:06:20.575Z,21.27
2019-02-24T00:08:48.027Z,20.93
2019-02-24T00:11:15.491Z,20.30
2019-02-24T00:13:42.940Z,21.57
2019-02-24T00:16:10.402Z,21.93
2019-02-24T00:18:37.833Z,22.73
2019-02-24T00:21:05.294Z,21.63
2019-02-24T00:23:32.771Z,22.20
2019-02-24T00:26:00.222Z,21.80
2019-02-24T00:28:27.657Z,21.57
2019-02-24T00:30:55.098Z,19.30
2019-02-24T00:33:22.564Z,21.13
2019-02-24T00:35:50.015Z,20.73
2019-02-24T00:38:17.436Z,20.87
2019-02-24T00:40:44.913Z,20.80
2019-02-24T00:43:14.799Z,20.60
2019-02-24T00:45:42.359Z,19.83
2019-02-24T00:48:09.783Z,19.93
2019-02-24T00:50:37.224Z,19.30
2019-02-24T00:53:04.663Z,19.17
2019-02-24T00:55:32.108Z,19.83
2019-02-24T00:57:59.572Z,18.50
2019-02-24T01:00:27.055Z,19.57
2019-02-24T01:02:54.498Z,18.03
2019-02-24T01:05:21.952Z,19.67
2019-02-24T01:07:49.402Z,18.93
2019-02-24T01:10:16.888Z,18.47
2019-02-24T01:12:44.327Z,18.20
2019-02-24T01:15:11.792Z,19.53
2019-02-24T01:17:39.213Z,18.37
2019-02-24T01:20:09.242Z,18.40
2019-02-24T01:22:36.661Z,17.70
2019-02-24T01:25:04.104Z,16.53
2019-02-24T01:27:31.642Z,18.43
2019-02-24T01:29:59.108Z,16.63
2019-02-24T01:32:26.684Z,18.47
2019-02-24T01:34:54.146Z,19.20
2019-02-24T01:37:21.590Z,19.13
2019-02-24T01:39:49.022Z,20.63
2019-02-24T01:42:16.782Z,16.93
2019-02-24T01:44:44.358Z,17.93
2019-02-24T01:47:11.798Z,17.37
2019-02-24T01:49:39.259Z,15.90
2019-02-24T01:52:08.821Z,16.33
2019-02-24T01:54:36.265Z,16.40
2019-02-24T01:57:03.699Z,16.53
2019-02-24T01:59:31.173Z,15.03
2019-02-24T02:01:58.614Z,15.80
2019-02-24T02:04:26.044Z,17.50
2019-02-24T02:06:53.525Z,16.03
2019-02-24T02:09:20.979Z,16.30
2019-02-24T02:11:48.396Z,16.27
2019-02-24T02:14:15.866Z,16.40
2019-02-24T02:16:45.463Z,16.37
2019-02-24T02:19:12.997Z,16.37
2019-02-24T02:21:40.480Z,16.43
2019-02-24T02:24:07.973Z,16.17
2019-02-24T02:26:35.475Z,16.80
2019-02-24T02:29:02.915Z,15.13
2019-02-24T02:31:30.367Z,14.03
2019-02-24T02:33:57.797Z,15.23
2019-02-24T02:36:25.253Z,15.70
2019-02-24T02:38:52.685Z,17.07
2019-02-24T02:41:21.164Z,13.57
2019-02-24T02:43:48.603Z,13.93
2019-02-24T02:46:16.081Z,14.43
2019-02-24T02:48:43.538Z,14.10
2019-02-24T02:51:10.964Z,14.00
2019-02-24T02:53:38.448Z,15.50
2019-02-24T02:56:05.878Z,14.30
2019-02-24T02:58:33.349Z,13.83
2019-02-24T03:01:00.773Z,14.83
2019-02-24T03:03:28.247Z,13.67
2019-02-24T03:06:14.038Z,13.73
2019-02-24T03:08:44.570Z,14.87
2019-02-24T03:11:12.009Z,15.17
2019-02-24T03:13:39.439Z,15.80
2019-02-24T03:16:06.895Z,16.53
2019-02-24T03:18:34.367Z,18.20
2019-02-24T03:21:01.790Z,16.63
2019-02-24T03:23:29.244Z,18.03
2019-02-24T03:25:56.694Z,20.07
2019-02-24T03:28:24.179Z,17.93
2019-02-24T03:30:51.594Z,17.47
2019-02-24T03:33:19.060Z,13.20
2019-02-24T03:35:46.529Z,12.27
2019-02-24T03:38:13.968Z,11.80
2019-02-24T03:40:41.433Z,12.93
2019-02-24T03:43:08.893Z,12.87
2019-02-24T03:45:36.317Z,13.20
2019-02-24T03:48:03.777Z,13.13
2019-02-24T03:50:31.234Z,14.67
2019-02-24T03:52:58.722Z,14.00
2019-02-24T03:55:26.187Z,14.23
2019-02-24T03:57:53.699Z,14.30
2019-02-24T04:00:23.187Z,13.73
2019-02-24T04:02:50.696Z,14.03
2019-02-24T04:05:18.145Z,13.30
2019-02-24T04:07:45.625Z,13.87
2019-02-24T04:10:13.056Z,13.70
2019-02-24T04:12:40.495Z,13.60
2019-02-24T04:15:07.973Z,12.93
2019-02-24T04:17:35.437Z,12.73
2019-02-24T04:20:02.962Z,14.23
2019-02-24T04:22:30.404Z,14.07
2019-02-24T04:24:57.864Z,13.83
2019-02-24T04:27:25.342Z,14.00
2019-02-24T04:29:52.794Z,14.00
2019-02-24T04:32:20.243Z,13.77
2019-02-24T04:34:47.712Z,12.63
2019-02-24T04:37:15.174Z,12.60
2019-02-24T04:39:42.629Z,11.47
2019-02-24T04:42:10.067Z,12.90
2019-02-24T04:44:37.534Z,13.20
2019-02-24T04:47:04.971Z,11.70
2019-02-24T04:49:32.434Z,12.07
2019-02-24T04:51:59.856Z,12.13
2019-02-24T04:54:27.307Z,11.40
2019-02-24T04:56:54.769Z,12.00
2019-02-24T04:59:22.287Z,12.70
2019-02-24T05:01:49.750Z,13.20
2019-02-24T05:04:17.193Z,11.73
2019-02-24T05:06:44.641Z,12.53
2019-02-24T05:09:13.214Z,12.53
2019-02-24T05:11:40.635Z,12.20
2019-02-24T05:14:08.051Z,12.90
2019-02-24T05:16:35.563Z,12.93
2019-02-24T05:19:03.005Z,11.70
2019-02-24T05:21:30.451Z,12.53
2019-02-24T05:23:57.935Z,13.40
2019-02-24T05:26:25.377Z,12.73
2019-02-24T05:28:52.816Z,12.60
2019-02-24T05:31:20.285Z,12.33
2019-02-24T05:33:47.724Z,11.97
2019-02-24T05:36:15.214Z,12.17
2019-02-24T05:38:42.680Z,12.00
2019-02-24T05:41:12.790Z,10.50
2019-02-24T05:43:40.287Z,11.53
2019-02-24T05:46:07.755Z,10.90
2019-02-24T05:48:35.233Z,9.57
2019-02-24T05:51:02.674Z,11.13
2019-02-24T05:53:32.898Z,10.93
2019-02-24T05:56:00.399Z,10.97
2019-02-24T05:58:27.864Z,11.43
2019-02-24T06:00:55.383Z,12.07
2019-02-24T06:03:22.850Z,12.50
2019-02-24T06:05:50.366Z,11.23
2019-02-24T06:08:17.853Z,11.77
2019-02-24T06:10:45.315Z,12.87
2019-02-24T06:13:12.806Z,12.47
2019-02-24T06:15:40.254Z,12.03
2019-02-24T06:18:07.745Z,12.53
2019-02-24T06:20:35.228Z,10.73
2019-02-24T06:23:02.694Z,10.63
2019-02-24T06:25:30.179Z,12.60
2019-02-24T06:27:57.585Z,11.30
2019-02-24T06:30:25.075Z,10.77
2019-02-24T06:32:52.559Z,10.97
2019-02-24T06:35:20.002Z,11.47
2019-02-24T06:37:47.491Z,11.40
2019-02-24T06:40:14.923Z,14.27
2019-02-24T06:42:42.409Z,12.03
2019-02-24T06:45:09.906Z,11.70
2019-02-24T06:47:37.379Z,11.37
2019-02-24T06:50:04.829Z,11.73
2019-02-24T06:52:32.339Z,12.27
2019-02-24T06:54:59.827Z,12.10
2019-02-24T06:57:27.266Z,11.67
2019-02-24T06:59:54.719Z,11.20
2019-02-24T07:02:22.215Z,10.73
2019-02-24T07:04:49.641Z,11.47
2019-02-24T07:07:17.115Z,10.50
2019-02-24T07:09:44.564Z,11.33
2019-02-24T07:12:12.052Z,10.87
2019-02-24T07:14:39.523Z,10.97
2019-02-24T07:17:06.945Z,10.37
2019-02-24T07:19:35.295Z,10.93
2019-02-24T07:22:01.850Z,11.00
2019-02-24T07:24:29.348Z,10.97
2019-02-24T07:26:56.795Z,11.23
2019-02-24T07:29:24.287Z,11.83
2019-02-24T07:31:51.749Z,10.00
2019-02-24T07:34:19.197Z,10.90
2019-02-24T07:36:46.663Z,10.10
2019-02-24T07:39:14.141Z,11.33
2019-02-24T07:41:41.635Z,11.77
2019-02-24T07:44:09.095Z,12.47
2019-02-24T07:46:36.563Z,11.33
2019-02-24T07:49:05.300Z,13.10
2019-02-24T07:51:32.798Z,13.80
2019-02-24T07:54:00.267Z,16.50
2019-02-24T07:56:27.691Z,15.43
2019-02-24T07:58:55.138Z,16.07
2019-02-24T08:01:22.598Z,16.63
2019-02-24T08:03:50.047Z,14.70
2019-02-24T08:06:17.507Z,11.47
2019-02-24T08:08:44.965Z,10.70
2019-02-24T08:11:12.394Z,10.20
2019-02-24T08:13:39.816Z,9.70
2019-02-24T08:16:08.398Z,10.20
2019-02-24T08:18:35.825Z,11.33
2019-02-24T08:21:03.324Z,11.03
2019-02-24T08:23:30.684Z,9.63
2019-02-24T08:25:59.637Z,9.40
2019-02-24T08:28:27.055Z,9.53
2019-02-24T08:30:54.557Z,9.53
2019-02-24T08:33:21.961Z,9.43
2019-02-24T08:35:49.403Z,10.67
2019-02-24T08:38:16.871Z,11.20
2019-02-24T08:40:44.366Z,10.37
2019-02-24T08:43:11.825Z,9.93
2019-02-24T08:45:39.259Z,10.90
2019-02-24T08:48:06.699Z,9.77
2019-02-24T08:50:34.104Z,9.53
2019-02-24T08:53:01.573Z,9.80
2019-02-24T08:55:28.986Z,9.20
2019-02-24T08:57:56.435Z,10.13
2019-02-24T09:00:23.880Z,11.30
2019-02-24T09:02:53.388Z,11.60
2019-02-24T09:05:20.820Z,9.67
2019-02-24T09:07:49.490Z,9.30
2019-02-24T09:10:19.085Z,9.90
2019-02-24T09:12:47.275Z,9.03
2019-02-24T09:15:14.721Z,10.30
2019-02-24T09:17:44.778Z,9.77
2019-02-24T09:20:12.223Z,11.00
2019-02-24T09:22:39.767Z,9.60
2019-02-24T09:25:07.282Z,10.70
2019-02-24T09:27:34.724Z,9.53
2019-02-24T09:30:02.144Z,10.67
2019-02-24T09:32:29.619Z,10.13
2019-02-24T09:34:57.044Z,10.20
2019-02-24T09:37:24.494Z,9.83
2019-02-24T09:39:51.924Z,9.53
2019-02-24T09:42:19.340Z,9.50
2019-02-24T09:44:46.805Z,9.47
2019-02-24T09:47:14.221Z,8.67
2019-02-24T09:49:41.675Z,8.73
2019-02-24T09:52:11.589Z,9.07
2019-02-24T09:54:39.073Z,9.13
2019-02-24T09:57:06.525Z,8.70
2019-02-24T09:59:33.978Z,8.40
2019-02-24T10:02:01.400Z,8.20
2019-02-24T10:04:28.904Z,8.77
2019-02-24T10:06:58.870Z,8.57
2019-02-24T10:09:26.304Z,9.43
2019-02-24T10:11:53.738Z,8.87
2019-02-24T10:14:21.150Z,7.93
2019-02-24T10:16:48.585Z,10.23
2019-02-24T10:19:15.991Z,9.33
2019-02-24T10:21:43.420Z,7.67
2019-02-24T10:24:10.854Z,8.10
2019-02-24T10:26:38.321Z,8.50
2019-02-24T10:29:05.770Z,8.43
2019-02-24T10:31:33.181Z,8.20
2019-02-24T10:34:00.630Z,7.67
2019-02-24T10:36:29.253Z,7.77
2019-02-24T10:38:56.066Z,8.33
2019-02-24T10:41:23.472Z,7.30
2019-02-24T10:43:50.912Z,7.87
2019-02-24T10:46:18.337Z,7.63
2019-02-24T10:48:45.752Z,7.53
2019-02-24T10:51:13.215Z,7.47
2019-02-24T10:53:40.629Z,7.57
2019-02-24T10:56:08.066Z,7.20
2019-02-24T10:58:35.480Z,7.40
2019-02-24T11:01:02.955Z,6.20
2019-02-24T11:03:30.334Z,7.00
2019-02-24T11:06:01.950Z,6.87
2019-02-24T11:08:29.404Z,6.53
2019-02-24T11:10:56.834Z,6.90
2019-02-24T11:13:24.264Z,7.17
2019-02-24T11:15:51.692Z,6.93
2019-02-24T11:18:19.127Z,6.47
2019-02-24T11:20:46.525Z,5.00
2019-02-24T11:23:13.951Z,5.90
2019-02-24T11:25:41.371Z,5.50
2019-02-24T11:28:08.807Z,4.93
2019-02-24T11:30:36.215Z,4.30
2019-02-24T11:33:03.703Z,4.50
2019-02-24T11:35:33.477Z,4.87
2019-02-24T11:37:58.553Z,4.30
2019-02-24T11:40:25.990Z,4.00
2019-02-24T11:42:53.402Z,4.77
2019-02-24T11:45:20.846Z,4.40
2019-02-24T11:47:48.266Z,5.37
2019-02-24T11:50:15.721Z,4.63
2019-02-24T11:52:43.123Z,4.17
2019-02-24T11:55:10.566Z,4.20
2019-02-24T11:57:37.983Z,4.13
2019-02-24T12:00:05.404Z,4.17
2019-02-24T12:02:34.681Z,4.23
2019-02-24T12:05:00.294Z,3.43
2019-02-24T12:07:28.771Z,3.90
2019-02-24T12:09:56.227Z,3.60
2019-02-24T12:12:23.654Z,4.20
2019-02-24T12:14:51.062Z,3.97
2019-02-24T12:17:18.502Z,3.47
2019-02-24T12:19:45.934Z,3.47
2019-02-24T12:22:13.354Z,3.90
2019-02-24T12:24:44.233Z,3.70
2019-02-24T12:27:12.835Z,3.30
2019-02-24T12:29:40.236Z,3.23
2019-02-24T12:32:07.745Z,2.90
2019-02-24T12:34:35.117Z,3.00
2019-02-24T12:37:02.655Z,2.70
2019-02-24T12:39:32.647Z,3.40
2019-02-24T12:42:00.089Z,3.10
2019-02-24T12:44:27.547Z,3.20
2019-02-24T12:46:54.955Z,2.90
2019-02-24T12:49:23.410Z,3.13
2019-02-24T12:51:50.857Z,3.20
2019-02-24T12:54:18.287Z,3.00
2019-02-24T12:56:45.739Z,2.80
2019-02-24T12:59:20.389Z,2.53
2019-02-24T13:01:47.802Z,2.60
2019-02-24T13:04:15.245Z,2.70
2019-02-24T13:06:42.676Z,2.30
2019-02-24T13:09:10.105Z,2.80
2019-02-24T13:11:37.533Z,2.40
2019-02-24T13:14:04.961Z,2.80
2019-02-24T13:16:32.421Z,2.80
2019-02-24T13:18:59.862Z,2.30
2019-02-24T13:21:27.310Z,2.53
2019-02-24T13:23:54.723Z,2.63
2019-02-24T13:26:23.223Z,2.67
2019-02-24T13:28:51.610Z,2.57
2019-02-24T13:31:19.024Z,2.10
2019-02-24T13:33:46.461Z,2.50
2019-02-24T13:36:13.887Z,2.57
2019-02-24T13:38:41.307Z,2.63
2019-02-24T13:41:08.749Z,2.40
2019-02-24T13:43:36.152Z,2.60
2019-02-24T13:46:03.581Z,2.50
2019-02-24T13:48:31.002Z,2.33
2019-02-24T13:51:00.498Z,2.60
2019-02-24T13:53:29.985Z,2.20
2019-02-24T13:56:00.331Z,3.03
2019-02-24T13:58:28.872Z,2.70
2019-02-24T14:00:56.304Z,2.87
2019-02-24T14:03:23.725Z,3.17
2019-02-24T14:05:54.154Z,2.63
2019-02-24T14:08:21.575Z,2.60
2019-02-24T14:10:51.497Z,2.53
2019-02-24T14:13:20.393Z,3.00
2019-02-24T14:15:47.810Z,2.90
2019-02-24T14:18:15.282Z,2.87
2019-02-24T14:20:42.699Z,2.90
2019-02-24T14:23:10.484Z,2.70
2019-02-24T14:25:37.974Z,3.00
2019-02-24T14:28:06.726Z,3.03
2019-02-24T14:30:34.138Z,2.80
2019-02-24T14:33:01.570Z,2.97
2019-02-24T14:35:28.984Z,3.33
2019-02-24T14:37:56.394Z,3.37
2019-02-24T14:40:23.854Z,2.97
2019-02-24T14:42:51.260Z,2.90
2019-02-24T14:45:18.703Z,3.07
2019-02-24T14:47:46.114Z,3.07
2019-02-24T14:50:13.550Z,2.87
2019-02-24T14:52:40.971Z,2.80
2019-02-24T14:55:11.621Z,2.83
2019-02-24T14:57:39.066Z,3.10
2019-02-24T15:00:13.820Z,3.10
2019-02-24T15:02:42.686Z,2.57
2019-02-24T15:05:08.736Z,2.70
2019-02-24T15:07:36.173Z,2.60
2019-02-24T15:10:03.588Z,3.23
2019-02-24T15:12:30.996Z,3.07
2019-02-24T15:14:58.463Z,3.20
2019-02-24T15:17:25.896Z,3.50
2019-02-24T15:19:53.334Z,3.47
2019-02-24T15:22:20.742Z,3.10
2019-02-24T15:24:48.187Z,2.80
2019-02-24T15:27:15.600Z,2.70
2019-02-24T15:29:45.461Z,3.20
2019-02-24T15:32:12.889Z,3.80
2019-02-24T15:34:40.293Z,3.17
2019-02-24T15:37:07.747Z,3.07
2019-02-24T15:39:35.172Z,3.53
2019-02-24T15:42:03.761Z,3.40
2019-02-24T15:44:32.799Z,3.00
2019-02-24T15:47:00.507Z,2.60
2019-02-24T15:49:28.997Z,2.90
2019-02-24T15:51:56.441Z,3.37
2019-02-24T15:54:23.902Z,3.00
2019-02-24T15:56:51.350Z,3.50
2019-02-24T15:59:18.793Z,3.50
2019-02-24T16:01:46.213Z,4.20
2019-02-24T16:04:13.631Z,3.87
2019-02-24T16:06:41.033Z,4.27
2019-02-24T16:09:08.468Z,6.73
2019-02-24T16:11:35.877Z,8.70
2019-02-24T16:14:03.306Z,5.37
2019-02-24T16:16:31.946Z,4.37
2019-02-24T16:18:59.377Z,5.70
2019-02-24T16:21:26.808Z,5.20
2019-02-24T16:23:54.230Z,5.10
2019-02-24T16:26:21.658Z,5.50
2019-02-24T16:28:49.986Z,5.20
2019-02-24T16:31:17.457Z,6.57
2019-02-24T16:33:44.899Z,7.47
2019-02-24T16:36:12.308Z,7.27
2019-02-24T16:38:39.749Z,5.60
2019-02-24T16:41:07.193Z,6.23
2019-02-24T16:43:34.606Z,5.27
2019-02-24T16:46:02.063Z,4.50
2019-02-24T16:48:29.520Z,4.50
2019-02-24T16:50:58.030Z,4.53
2019-02-24T16:53:25.467Z,4.80
2019-02-24T16:55:52.893Z,6.37
2019-02-24T16:58:24.120Z,5.80
2019-02-24T17:00:51.545Z,5.27
2019-02-24T17:03:20.102Z,4.80
2019-02-24T17:05:46.500Z,4.23
2019-02-24T17:08:13.957Z,4.20
2019-02-24T17:10:41.395Z,5.20
2019-02-24T17:13:08.864Z,4.93
2019-02-24T17:15:36.315Z,5.10
2019-02-24T17:18:04.554Z,4.60
2019-02-24T17:20:33.511Z,5.33
2019-02-24T17:23:01.724Z,7.80
2019-02-24T17:25:29.165Z,5.77
2019-02-24T17:27:56.597Z,5.30
2019-02-24T17:30:24.139Z,4.73
2019-02-24T17:32:51.531Z,5.53
2019-02-24T17:35:20.063Z,5.07
2019-02-24T17:37:47.578Z,6.20
2019-02-24T17:40:19.332Z,6.07
2019-02-24T17:42:45.128Z,7.50
2019-02-24T17:45:12.538Z,8.33
2019-02-24T17:47:40.008Z,6.90
2019-02-24T17:50:10.303Z,6.80
2019-02-24T17:52:37.725Z,7.10
2019-02-24T17:55:05.185Z,6.37
2019-02-24T17:57:33.772Z,7.37
2019-02-24T18:00:01.239Z,6.40
2019-02-24T18:02:28.704Z,6.83
2019-02-24T18:04:56.213Z,8.23
2019-02-24T18:07:23.736Z,8.80
2019-02-24T18:09:51.247Z,9.37
2019-02-24T18:12:18.666Z,8.90
2019-02-24T18:14:56.562Z,9.13
2019-02-24T18:17:23.977Z,8.53
2019-02-24T18:19:51.438Z,8.60
2019-02-24T18:22:18.871Z,9.60
2019-02-24T18:24:46.276Z,8.30
2019-02-24T18:27:13.929Z,8.47
2019-02-24T18:29:41.732Z,8.20
2019-02-24T18:32:09.240Z,7.80
2019-02-24T18:34:37.025Z,7.17
2019-02-24T18:37:04.488Z,8.47
2019-02-24T18:39:31.905Z,8.17
2019-02-24T18:41:59.314Z,9.37
2019-02-24T18:44:26.759Z,9.60
2019-02-24T18:46:54.158Z,9.77
2019-02-24T18:49:21.581Z,9.30
2019-02-24T18:51:49.013Z,10.07
2019-02-24T18:54:16.428Z,8.93
2019-02-24T18:56:43.919Z,9.47
2019-02-24T18:59:11.354Z,9.17
2019-02-24T19:01:38.963Z,8.03
2019-02-24T19:04:06.408Z,8.17
2019-02-24T19:06:39.181Z,8.47
2019-02-24T19:09:01.358Z,8.67
2019-02-24T19:11:28.757Z,9.00
2019-02-24T19:13:56.157Z,8.83
2019-02-24T19:16:23.589Z,8.50
2019-02-24T19:18:51.060Z,8.43
2019-02-24T19:21:18.499Z,9.17
2019-02-24T19:23:45.902Z,9.30
2019-02-24T19:26:13.418Z,8.77
2019-02-24T19:28:40.843Z,10.10
2019-02-24T19:31:08.279Z,11.23
2019-02-24T19:33:35.744Z,10.23
2019-02-24T19:36:03.162Z,10.60
2019-02-24T19:38:30.616Z,10.13
2019-02-24T19:40:58.038Z,10.97
2019-02-24T19:43:25.483Z,10.70
2019-02-24T19:45:52.907Z,12.53
2019-02-24T19:48:20.435Z,12.03
2019-02-24T19:50:47.859Z,11.70
2019-02-24T19:53:15.310Z,11.13
2019-02-24T19:55:42.812Z,10.77
2019-02-24T19:58:10.239Z,12.87
2019-02-24T20:00:37.670Z,10.67
2019-02-24T20:03:05.095Z,11.67
2019-02-24T20:05:32.559Z,11.70
2019-02-24T20:08:00.018Z,10.27
2019-02-24T20:10:27.488Z,11.43
2019-02-24T20:12:54.887Z,10.13
2019-02-24T20:15:22.294Z,10.53
2019-02-24T20:17:49.770Z,12.00
2019-02-24T20:20:17.296Z,12.60
2019-02-24T20:22:44.693Z,11.50
2019-02-24T20:25:12.184Z,10.77
2019-02-24T20:27:39.619Z,10.50
2019-02-24T20:30:16.033Z,9.83
2019-02-24T20:32:44.489Z,10.37
2019-02-24T20:35:11.912Z,10.93
2019-02-24T20:37:39.357Z,9.80
2019-02-24T20:40:09.363Z,10.27
2019-02-24T20:42:36.808Z,10.13
2019-02-24T20:45:04.281Z,10.40
2019-02-24T20:47:31.744Z,10.17
2019-02-24T20:49:59.233Z,11.50
2019-02-24T20:52:26.666Z,10.50
2019-02-24T20:54:54.116Z,10.83
2019-02-24T20:57:21.687Z,11.27
2019-02-24T20:59:49.134Z,11.17
2019-02-24T21:02:18.228Z,11.17
2019-02-24T21:04:44.044Z,11.00
2019-02-24T21:07:11.479Z,10.90
2019-02-24T21:09:38.934Z,11.80
2019-02-24T21:12:06.351Z,11.37
2019-02-24T21:14:33.782Z,12.17
2019-02-24T21:17:01.381Z,11.83
2019-02-24T21:19:28.890Z,11.40
2019-02-24T21:21:56.377Z,11.67
2019-02-24T21:24:23.800Z,11.30
2019-02-24T21:26:51.302Z,12.70
2019-02-24T21:29:18.803Z,11.73
2019-02-24T21:31:46.266Z,11.93
2019-02-24T21:34:13.670Z,12.23
2019-02-24T21:36:41.171Z,12.30
2019-02-24T21:39:08.660Z,12.27
2019-02-24T21:41:37.159Z,11.70
2019-02-24T21:44:04.581Z,12.40
2019-02-24T21:46:32.024Z,12.33
2019-02-24T21:48:59.517Z,13.03
2019-02-24T21:51:27.000Z,11.80
2019-02-24T21:53:54.518Z,13.00
2019-02-24T21:56:21.965Z,12.83
2019-02-24T21:58:50.666Z,13.13
2019-02-24T22:01:18.084Z,12.27
2019-02-24T22:03:45.536Z,14.23
2019-02-24T22:06:12.954Z,13.00
2019-02-24T22:08:40.388Z,15.43
2019-02-24T22:11:07.915Z,15.17
2019-02-24T22:13:35.323Z,15.87
2019-02-24T22:16:02.737Z,12.33
2019-02-24T22:18:30.188Z,11.87
2019-02-24T22:20:57.608Z,11.90
2019-02-24T22:23:25.133Z,11.20
2019-02-24T22:25:52.522Z,11.97
2019-02-24T22:28:19.963Z,10.23
2019-02-24T22:30:47.382Z,12.10
2019-02-24T22:33:14.818Z,11.57
2019-02-24T22:35:42.242Z,12.10
2019-02-24T22:38:09.731Z,12.70
2019-02-24T22:40:37.144Z,11.10
2019-02-24T22:43:04.611Z,10.03
2019-02-24T22:45:32.027Z,11.57
2019-02-24T22:47:59.452Z,12.30
2019-02-24T22:50:26.897Z,11.47
2019-02-24T22:52:54.313Z,11.13
2019-02-24T22:55:21.772Z,11.93
2019-02-24T22:57:49.301Z,12.67
2019-02-24T23:00:22.699Z,12.90
2019-02-24T23:02:50.117Z,15.17
2019-02-24T23:05:17.547Z,13.97
2019-02-24T23:07:45.029Z,13.33
2019-02-24T23:10:18.399Z,12.83
2019-02-24T23:12:45.836Z,12.50
2019-02-24T23:15:13.264Z,13.20
2019-02-24T23:17:40.740Z,12.87
2019-02-24T23:20:08.265Z,11.50
2019-02-24T23:22:35.683Z,12.87
2019-02-24T23:25:03.103Z,12.30
2019-02-24T23:27:30.574Z,13.30
2019-02-24T23:29:58.013Z,12.77
2019-02-24T23:32:25.453Z,12.30
2019-02-24T23:34:52.877Z,11.97
2019-02-24T23:37:20.315Z,12.67
2019-02-24T23:39:47.812Z,12.67
2019-02-24T23:42:15.212Z,11.77
2019-02-24T23:44:42.670Z,11.90
2019-02-24T23:47:10.081Z,12.93
2019-02-24T23:49:37.510Z,12.67
2019-02-24T23:52:04.939Z,12.67
2019-02-24T23:54:33.597Z,11.80
2019-02-24T23:56:59.839Z,12.23
2019-02-24T23:59:27.252Z,12.10
